sensor_id;sensor_type;location;lat;lon;timestamp;P1;durP1;ratioP1;P2;durP2;ratioP2
67130;SDS011;54051;53.464;49.532;2022-12-24T15:53:49;8.45;;;3.53;;
67130;SDS011;54051;53.464;49.532;2022-12-24T16:02:16;7.85;;;2.80;;
67130;SDS011;54051;53.464;49.532;2022-12-24T16:04:46;9.73;;;3.30;;
67130;SDS011;54051;53.464;49.532;2022-12-24T16:07:23;6.68;;;2.47;;
67130;SDS011;54051;53.464;49.532;2022-12-24T16:09:50;8.15;;;2.53;;
67130;SDS011;54051;53.464;49.532;2022-12-24T16:12:17;8.25;;;2.90;;
67130;SDS011;54051;53.464;49.532;2022-12-24T16:14:56;8.38;;;3.05;;
67130;SDS011;54051;53.464;49.532;2022-12-24T16:17:28;8.57;;;2.53;;
67130;SDS011;54051;53.464;49.532;2022-12-24T16:19:58;7.55;;;2.80;;
67130;SDS011;54051;53.464;49.532;2022-12-24T16:22:28;6.45;;;2.35;;
67130;SDS011;54051;53.464;49.532;2022-12-24T16:25:01;6.38;;;2.42;;
67130;SDS011;54051;53.464;49.532;2022-12-24T16:27:50;6.50;;;2.22;;
67130;SDS011;54051;53.464;49.532;2022-12-24T16:30:17;5.82;;;1.98;;
67130;SDS011;54051;53.464;49.532;2022-12-24T16:32:44;6.28;;;2.47;;
67130;SDS011;54051;53.464;49.532;2022-12-24T16:35:16;7.55;;;2.40;;
67130;SDS011;54051;53.464;49.532;2022-12-24T16:38:01;6.97;;;2.22;;
67130;SDS011;54051;53.464;49.532;2022-12-24T16:40:28;8.52;;;2.50;;
67130;SDS011;54051;53.464;49.532;2022-12-24T16:42:57;8.57;;;2.20;;
67130;SDS011;54051;53.464;49.532;2022-12-24T16:45:41;5.32;;;1.88;;
67130;SDS011;54051;53.464;49.532;2022-12-24T16:48:10;5.72;;;2.10;;
67130;SDS011;54051;53.464;49.532;2022-12-24T16:50:44;5.63;;;1.90;;
67130;SDS011;54051;53.464;49.532;2022-12-24T16:53:14;8.65;;;1.90;;
67130;SDS011;54051;53.464;49.532;2022-12-24T16:55:42;6.30;;;1.98;;
67130;SDS011;54051;53.464;49.532;2022-12-24T16:58:10;5.20;;;1.70;;
67130;SDS011;54051;53.464;49.532;2022-12-24T17:00:37;6.65;;;1.85;;
67130;SDS011;54051;53.464;49.532;2022-12-24T17:03:04;5.43;;;1.80;;
67130;SDS011;54051;53.464;49.532;2022-12-24T17:05:30;6.17;;;1.90;;
67130;SDS011;54051;53.464;49.532;2022-12-24T17:07:59;6.25;;;1.67;;
67130;SDS011;54051;53.464;49.532;2022-12-24T17:10:25;4.63;;;1.73;;
67130;SDS011;54051;53.464;49.532;2022-12-24T17:12:52;7.13;;;1.63;;
67130;SDS011;54051;53.464;49.532;2022-12-24T17:15:18;4.90;;;1.80;;
67130;SDS011;54051;53.464;49.532;2022-12-24T17:17:44;4.53;;;1.60;;
67130;SDS011;54051;53.464;49.532;2022-12-24T17:20:10;4.70;;;1.75;;
67130;SDS011;54051;53.464;49.532;2022-12-24T17:22:37;4.45;;;1.38;;
67130;SDS011;54051;53.464;49.532;2022-12-24T17:25:04;5.18;;;1.83;;
67130;SDS011;54051;53.464;49.532;2022-12-24T17:27:31;5.72;;;1.60;;
67130;SDS011;54051;53.464;49.532;2022-12-24T17:29:58;4.77;;;1.63;;
67130;SDS011;54051;53.464;49.532;2022-12-24T17:32:24;5.78;;;1.70;;
67130;SDS011;54051;53.464;49.532;2022-12-24T17:34:54;4.93;;;1.60;;
67130;SDS011;54051;53.464;49.532;2022-12-24T17:37:20;4.45;;;1.52;;
67130;SDS011;54051;53.464;49.532;2022-12-24T17:39:46;4.75;;;1.23;;
67130;SDS011;54051;53.464;49.532;2022-12-24T17:42:12;4.90;;;1.40;;
67130;SDS011;54051;53.464;49.532;2022-12-24T17:44:38;4.15;;;1.30;;
67130;SDS011;54051;53.464;49.532;2022-12-24T17:47:04;4.00;;;1.40;;
67130;SDS011;54051;53.464;49.532;2022-12-24T17:49:30;3.85;;;1.30;;
67130;SDS011;54051;53.464;49.532;2022-12-24T17:51:56;3.72;;;1.30;;
67130;SDS011;54051;53.464;49.532;2022-12-24T17:54:23;5.50;;;1.38;;
67130;SDS011;54051;53.464;49.532;2022-12-24T17:56:49;3.97;;;1.30;;
67130;SDS011;54051;53.464;49.532;2022-12-24T17:59:16;4.25;;;1.40;;
67130;SDS011;54051;53.464;49.532;2022-12-24T18:01:42;5.22;;;1.20;;
67130;SDS011;54051;53.464;49.532;2022-12-24T18:04:09;5.22;;;1.42;;
67130;SDS011;54051;53.464;49.532;2022-12-24T18:06:37;5.68;;;1.45;;
67130;SDS011;54051;53.464;49.532;2022-12-24T18:09:04;3.75;;;1.20;;
67130;SDS011;54051;53.464;49.532;2022-12-24T18:11:32;6.72;;;1.60;;
67130;SDS011;54051;53.464;49.532;2022-12-24T18:14:01;3.55;;;1.10;;
67130;SDS011;54051;53.464;49.532;2022-12-24T18:16:30;3.67;;;1.20;;
67130;SDS011;54051;53.464;49.532;2022-12-24T18:18:57;3.95;;;1.20;;
67130;SDS011;54051;53.464;49.532;2022-12-24T18:21:25;5.40;;;1.40;;
67130;SDS011;54051;53.464;49.532;2022-12-24T18:23:53;3.97;;;1.20;;
67130;SDS011;54051;53.464;49.532;2022-12-24T18:26:21;4.22;;;1.38;;
67130;SDS011;54051;53.464;49.532;2022-12-24T18:28:51;4.95;;;1.40;;
67130;SDS011;54051;53.464;49.532;2022-12-24T18:31:18;8.15;;;1.40;;
67130;SDS011;54051;53.464;49.532;2022-12-24T18:33:46;3.90;;;1.40;;
67130;SDS011;54051;53.464;49.532;2022-12-24T18:36:13;4.03;;;1.30;;
67130;SDS011;54051;53.464;49.532;2022-12-24T18:38:42;4.10;;;1.38;;
67130;SDS011;54051;53.464;49.532;2022-12-24T18:41:09;4.18;;;1.30;;
67130;SDS011;54051;53.464;49.532;2022-12-24T18:43:38;3.90;;;1.40;;
67130;SDS011;54051;53.464;49.532;2022-12-24T18:46:16;5.60;;;1.80;;
67130;SDS011;54051;53.464;49.532;2022-12-24T18:48:47;4.28;;;1.30;;
67130;SDS011;54051;53.464;49.532;2022-12-24T18:51:14;3.63;;;1.20;;
67130;SDS011;54051;53.464;49.532;2022-12-24T18:53:41;4.15;;;1.40;;
67130;SDS011;54051;53.464;49.532;2022-12-24T18:56:11;5.10;;;1.35;;
67130;SDS011;54051;53.464;49.532;2022-12-24T18:58:40;3.55;;;1.20;;
67130;SDS011;54051;53.464;49.532;2022-12-24T19:01:11;3.28;;;1.08;;
67130;SDS011;54051;53.464;49.532;2022-12-24T19:03:39;4.05;;;1.27;;
67130;SDS011;54051;53.464;49.532;2022-12-24T19:06:05;3.35;;;1.00;;
67130;SDS011;54051;53.464;49.532;2022-12-24T19:08:32;3.83;;;1.15;;
67130;SDS011;54051;53.464;49.532;2022-12-24T19:10:58;3.78;;;1.00;;
67130;SDS011;54051;53.464;49.532;2022-12-24T19:13:24;2.95;;;1.00;;
67130;SDS011;54051;53.464;49.532;2022-12-24T19:15:50;3.15;;;1.08;;
67130;SDS011;54051;53.464;49.532;2022-12-24T19:18:16;2.67;;;0.98;;
67130;SDS011;54051;53.464;49.532;2022-12-24T19:20:42;3.05;;;1.00;;
67130;SDS011;54051;53.464;49.532;2022-12-24T19:23:08;2.05;;;0.82;;
67130;SDS011;54051;53.464;49.532;2022-12-24T19:25:34;2.92;;;0.93;;
67130;SDS011;54051;53.464;49.532;2022-12-24T19:28:01;4.10;;;1.20;;
67130;SDS011;54051;53.464;49.532;2022-12-24T19:30:34;3.85;;;1.20;;
67130;SDS011;54051;53.464;49.532;2022-12-24T19:35:27;4.72;;;1.55;;
67130;SDS011;54051;53.464;49.532;2022-12-24T19:37:55;5.72;;;1.40;;
67130;SDS011;54051;53.464;49.532;2022-12-24T19:40:21;5.13;;;1.48;;
67130;SDS011;54051;53.464;49.532;2022-12-24T19:42:47;3.47;;;1.20;;
67130;SDS011;54051;53.464;49.532;2022-12-24T19:45:16;3.85;;;1.20;;
67130;SDS011;54051;53.464;49.532;2022-12-24T19:47:47;3.63;;;1.20;;
67130;SDS011;54051;53.464;49.532;2022-12-24T19:50:15;3.45;;;1.30;;
67130;SDS011;54051;53.464;49.532;2022-12-24T19:52:41;4.82;;;1.50;;
67130;SDS011;54051;53.464;49.532;2022-12-24T19:55:09;4.28;;;1.42;;
67130;SDS011;54051;53.464;49.532;2022-12-24T19:57:36;4.40;;;1.20;;
67130;SDS011;54051;53.464;49.532;2022-12-24T20:00:04;4.47;;;1.30;;
67130;SDS011;54051;53.464;49.532;2022-12-24T20:02:32;3.78;;;1.25;;
67130;SDS011;54051;53.464;49.532;2022-12-24T20:04:58;4.15;;;1.33;;
67130;SDS011;54051;53.464;49.532;2022-12-24T20:07:24;4.38;;;1.40;;
67130;SDS011;54051;53.464;49.532;2022-12-24T20:09:50;4.55;;;1.35;;
67130;SDS011;54051;53.464;49.532;2022-12-24T20:12:16;4.40;;;1.40;;
67130;SDS011;54051;53.464;49.532;2022-12-24T20:14:42;3.50;;;1.10;;
67130;SDS011;54051;53.464;49.532;2022-12-24T20:17:08;5.43;;;1.70;;
67130;SDS011;54051;53.464;49.532;2022-12-24T20:19:35;4.00;;;1.50;;
67130;SDS011;54051;53.464;49.532;2022-12-24T20:22:01;4.72;;;1.50;;
67130;SDS011;54051;53.464;49.532;2022-12-24T20:24:27;4.00;;;1.30;;
67130;SDS011;54051;53.464;49.532;2022-12-24T20:26:53;5.38;;;1.70;;
67130;SDS011;54051;53.464;49.532;2022-12-24T20:29:19;3.97;;;1.30;;
67130;SDS011;54051;53.464;49.532;2022-12-24T20:31:45;3.90;;;1.20;;
67130;SDS011;54051;53.464;49.532;2022-12-24T20:34:11;4.38;;;1.30;;
67130;SDS011;54051;53.464;49.532;2022-12-24T20:36:38;4.15;;;1.30;;
67130;SDS011;54051;53.464;49.532;2022-12-24T20:39:05;3.70;;;1.10;;
67130;SDS011;54051;53.464;49.532;2022-12-24T20:41:32;3.05;;;1.05;;
67130;SDS011;54051;53.464;49.532;2022-12-24T20:43:59;4.07;;;1.45;;
67130;SDS011;54051;53.464;49.532;2022-12-24T20:46:26;3.88;;;1.10;;
67130;SDS011;54051;53.464;49.532;2022-12-24T20:48:54;3.83;;;1.20;;
67130;SDS011;54051;53.464;49.532;2022-12-24T20:51:23;4.45;;;1.10;;
67130;SDS011;54051;53.464;49.532;2022-12-24T20:53:52;3.72;;;1.20;;
67130;SDS011;54051;53.464;49.532;2022-12-24T20:56:19;4.00;;;1.30;;
67130;SDS011;54051;53.464;49.532;2022-12-24T20:58:45;3.40;;;1.10;;
67130;SDS011;54051;53.464;49.532;2022-12-24T21:01:24;5.82;;;1.20;;
67130;SDS011;54051;53.464;49.532;2022-12-24T21:03:51;4.72;;;1.33;;
67130;SDS011;54051;53.464;49.532;2022-12-24T21:06:19;3.42;;;1.20;;
67130;SDS011;54051;53.464;49.532;2022-12-24T21:08:47;4.07;;;1.10;;
67130;SDS011;54051;53.464;49.532;2022-12-24T21:11:14;3.67;;;1.30;;
67130;SDS011;54051;53.464;49.532;2022-12-24T21:13:58;3.70;;;1.30;;
67130;SDS011;54051;53.464;49.532;2022-12-24T21:16:26;3.50;;;1.10;;
67130;SDS011;54051;53.464;49.532;2022-12-24T21:18:53;4.20;;;1.27;;
67130;SDS011;54051;53.464;49.532;2022-12-24T21:21:19;4.57;;;1.50;;
67130;SDS011;54051;53.464;49.532;2022-12-24T21:23:45;3.50;;;1.15;;
67130;SDS011;54051;53.464;49.532;2022-12-24T21:26:11;4.55;;;1.20;;
67130;SDS011;54051;53.464;49.532;2022-12-24T21:28:38;3.63;;;1.17;;
67130;SDS011;54051;53.464;49.532;2022-12-24T21:31:08;3.50;;;1.20;;
67130;SDS011;54051;53.464;49.532;2022-12-24T21:33:35;4.03;;;1.17;;
67130;SDS011;54051;53.464;49.532;2022-12-24T21:36:01;3.10;;;1.00;;
67130;SDS011;54051;53.464;49.532;2022-12-24T21:38:27;4.88;;;1.10;;
67130;SDS011;54051;53.464;49.532;2022-12-24T21:40:57;4.55;;;1.30;;
67130;SDS011;54051;53.464;49.532;2022-12-24T21:43:28;3.13;;;1.00;;
67130;SDS011;54051;53.464;49.532;2022-12-24T21:45:55;3.47;;;1.08;;
67130;SDS011;54051;53.464;49.532;2022-12-24T21:48:21;3.75;;;1.00;;
67130;SDS011;54051;53.464;49.532;2022-12-24T21:51:06;4.18;;;1.05;;
67130;SDS011;54051;53.464;49.532;2022-12-24T21:53:32;3.97;;;1.00;;
67130;SDS011;54051;53.464;49.532;2022-12-24T21:56:18;3.45;;;1.05;;
67130;SDS011;54051;53.464;49.532;2022-12-24T21:58:44;3.58;;;1.20;;
67130;SDS011;54051;53.464;49.532;2022-12-24T22:01:10;3.05;;;1.00;;
67130;SDS011;54051;53.464;49.532;2022-12-24T22:03:37;3.22;;;1.00;;
67130;SDS011;54051;53.464;49.532;2022-12-24T22:06:03;2.80;;;0.82;;
67130;SDS011;54051;53.464;49.532;2022-12-24T22:11:14;2.95;;;0.90;;
67130;SDS011;54051;53.464;49.532;2022-12-24T22:13:59;4.65;;;1.05;;
67130;SDS011;54051;53.464;49.532;2022-12-24T22:16:26;2.80;;;0.88;;
67130;SDS011;54051;53.464;49.532;2022-12-24T22:18:52;3.55;;;0.90;;
67130;SDS011;54051;53.464;49.532;2022-12-24T22:21:19;2.95;;;0.90;;
67130;SDS011;54051;53.464;49.532;2022-12-24T22:23:45;2.80;;;0.90;;
67130;SDS011;54051;53.464;49.532;2022-12-24T22:26:14;3.30;;;1.00;;
67130;SDS011;54051;53.464;49.532;2022-12-24T22:28:42;3.13;;;1.05;;
67130;SDS011;54051;53.464;49.532;2022-12-24T22:31:16;3.72;;;1.00;;
67130;SDS011;54051;53.464;49.532;2022-12-24T22:33:47;3.63;;;1.08;;
67130;SDS011;54051;53.464;49.532;2022-12-24T22:36:13;3.40;;;1.00;;
67130;SDS011;54051;53.464;49.532;2022-12-24T22:38:43;3.53;;;1.13;;
67130;SDS011;54051;53.464;49.532;2022-12-24T22:41:10;4.65;;;1.00;;
67130;SDS011;54051;53.464;49.532;2022-12-24T22:43:39;3.42;;;1.00;;
67130;SDS011;54051;53.464;49.532;2022-12-24T22:46:06;3.22;;;0.90;;
67130;SDS011;54051;53.464;49.532;2022-12-24T22:48:34;3.05;;;0.90;;
67130;SDS011;54051;53.464;49.532;2022-12-24T22:51:03;2.95;;;0.95;;
67130;SDS011;54051;53.464;49.532;2022-12-24T22:53:34;3.10;;;0.90;;
67130;SDS011;54051;53.464;49.532;2022-12-24T22:56:00;3.10;;;1.00;;
67130;SDS011;54051;53.464;49.532;2022-12-24T22:58:27;3.00;;;1.00;;
67130;SDS011;54051;53.464;49.532;2022-12-24T23:00:53;2.78;;;0.85;;
67130;SDS011;54051;53.464;49.532;2022-12-24T23:03:19;3.53;;;1.10;;
67130;SDS011;54051;53.464;49.532;2022-12-24T23:05:46;3.90;;;1.00;;
67130;SDS011;54051;53.464;49.532;2022-12-24T23:08:19;3.75;;;0.90;;
67130;SDS011;54051;53.464;49.532;2022-12-24T23:10:45;4.03;;;1.13;;
67130;SDS011;54051;53.464;49.532;2022-12-24T23:13:11;2.92;;;0.88;;
67130;SDS011;54051;53.464;49.532;2022-12-24T23:16:00;3.50;;;1.00;;
67130;SDS011;54051;53.464;49.532;2022-12-24T23:18:29;4.82;;;1.13;;
67130;SDS011;54051;53.464;49.532;2022-12-24T23:20:56;2.55;;;0.80;;
67130;SDS011;54051;53.464;49.532;2022-12-24T23:23:23;2.22;;;0.85;;
67130;SDS011;54051;53.464;49.532;2022-12-24T23:25:49;3.80;;;1.02;;
67130;SDS011;54051;53.464;49.532;2022-12-24T23:28:15;2.97;;;0.88;;
67130;SDS011;54051;53.464;49.532;2022-12-24T23:30:41;3.05;;;1.00;;
67130;SDS011;54051;53.464;49.532;2022-12-24T23:33:07;2.72;;;0.90;;
67130;SDS011;54051;53.464;49.532;2022-12-24T23:35:33;2.60;;;0.93;;
67130;SDS011;54051;53.464;49.532;2022-12-24T23:37:59;2.80;;;0.75;;
67130;SDS011;54051;53.464;49.532;2022-12-24T23:40:25;4.45;;;1.00;;
67130;SDS011;54051;53.464;49.532;2022-12-24T23:42:51;2.30;;;0.80;;
67130;SDS011;54051;53.464;49.532;2022-12-24T23:45:17;2.92;;;0.90;;
67130;SDS011;54051;53.464;49.532;2022-12-24T23:47:43;4.88;;;0.90;;
67130;SDS011;54051;53.464;49.532;2022-12-24T23:50:09;2.50;;;0.80;;
67130;SDS011;54051;53.464;49.532;2022-12-24T23:52:35;2.75;;;0.73;;
67130;SDS011;54051;53.464;49.532;2022-12-24T23:55:01;2.03;;;0.82;;
67130;SDS011;54051;53.464;49.532;2022-12-24T23:57:28;3.28;;;1.00;;
67130;SDS011;54051;53.464;49.532;2022-12-24T23:59:54;3.10;;;0.80;;
